createdAt,value
2017-08-24T00:01:07.432Z,91.25
2017-08-24T00:03:34.883Z,91.73
2017-08-24T00:06:02.362Z,91.40
2017-08-24T00:08:29.820Z,91.78
2017-08-24T00:10:57.285Z,92.02
2017-08-24T00:13:24.762Z,91.51
2017-08-24T00:15:52.226Z,92.57
2017-08-24T00:18:19.681Z,93.57
2017-08-24T00:20:47.162Z,93.65
2017-08-24T00:23:14.609Z,93.32
2017-08-24T00:25:42.266Z,92.23
2017-08-24T00:28:09.745Z,90.82
2017-08-24T00:30:37.215Z,91.60
2017-08-24T00:33:04.672Z,92.24
2017-08-24T00:35:32.145Z,91.46
2017-08-24T00:37:59.618Z,91.47
2017-08-24T00:40:27.064Z,91.67
2017-08-24T00:42:54.513Z,91.06
2017-08-24T00:45:22.071Z,92.85
2017-08-24T00:47:49.537Z,92.78
2017-08-24T00:50:17.020Z,92.98
2017-08-24T00:52:44.473Z,93.05
2017-08-24T00:55:11.925Z,93.57
2017-08-24T00:57:39.405Z,93.93
2017-08-24T01:00:06.893Z,93.16
2017-08-24T01:02:34.344Z,93.77
2017-08-24T01:05:01.793Z,93.75
2017-08-24T01:07:29.265Z,92.89
2017-08-24T01:09:56.717Z,93.92
2017-08-24T01:12:24.206Z,94.81
2017-08-24T01:14:52.021Z,95.23
2017-08-24T01:17:19.474Z,94.60
2017-08-24T01:19:46.926Z,94.15
2017-08-24T01:22:14.393Z,94.11
2017-08-24T01:24:41.843Z,94.00
2017-08-24T01:27:09.329Z,95.15
2017-08-24T01:29:36.801Z,94.08
2017-08-24T01:32:04.261Z,94.80
2017-08-24T01:34:31.737Z,94.80
2017-08-24T01:36:59.198Z,95.19
2017-08-24T01:39:26.677Z,94.44
2017-08-24T01:41:54.136Z,95.43
2017-08-24T01:44:21.610Z,95.44
2017-08-24T01:46:56.924Z,95.15
2017-08-24T01:49:24.401Z,95.97
2017-08-24T01:51:51.874Z,95.61
2017-08-24T01:54:19.362Z,95.91
2017-08-24T01:56:46.818Z,96.13
2017-08-24T01:59:14.274Z,94.78
2017-08-24T02:01:41.885Z,95.04
2017-08-24T02:04:09.340Z,94.96
2017-08-24T02:06:36.789Z,95.16
2017-08-24T02:09:04.271Z,95.44
2017-08-24T02:11:31.721Z,95.40
2017-08-24T02:13:59.205Z,95.86
2017-08-24T02:16:26.665Z,96.63
2017-08-24T02:18:54.137Z,96.45
2017-08-24T02:21:21.597Z,96.47
2017-08-24T02:23:49.049Z,96.50
2017-08-24T02:26:16.525Z,96.25
2017-08-24T02:28:43.977Z,95.98
2017-08-24T02:31:11.574Z,95.95
2017-08-24T02:33:39.031Z,96.01
2017-08-24T02:36:06.486Z,97.07
2017-08-24T02:38:34.261Z,96.91
2017-08-24T02:41:01.709Z,96.94
2017-08-24T02:43:29.165Z,97.70
2017-08-24T02:45:56.656Z,97.56
2017-08-24T02:48:24.117Z,97.18
2017-08-24T02:50:51.734Z,96.88
2017-08-24T02:53:19.192Z,96.59
2017-08-24T02:55:46.648Z,96.37
2017-08-24T02:58:14.133Z,97.76
2017-08-24T03:00:41.585Z,94.43
2017-08-24T03:03:09.069Z,90.04
2017-08-24T03:05:36.521Z,89.89
2017-08-24T03:08:03.976Z,87.86
2017-08-24T03:10:31.445Z,89.96
2017-08-24T03:12:58.902Z,89.31
2017-08-24T03:15:26.377Z,89.81
2017-08-24T03:17:54.738Z,90.34
2017-08-24T03:20:22.193Z,94.22
2017-08-24T03:22:49.683Z,94.71
2017-08-24T03:25:17.138Z,91.77
2017-08-24T03:27:44.595Z,90.11
2017-08-24T03:30:12.078Z,88.25
2017-08-24T03:32:39.523Z,89.11
2017-08-24T03:35:06.982Z,89.66
2017-08-24T03:37:34.457Z,89.54
2017-08-24T03:40:01.919Z,93.74
2017-08-24T03:42:29.401Z,93.50
2017-08-24T03:44:56.859Z,89.77
2017-08-24T03:47:24.322Z,88.61
2017-08-24T03:49:51.796Z,91.40
2017-08-24T03:52:19.248Z,93.59
2017-08-24T03:54:46.706Z,93.92
2017-08-24T03:57:14.200Z,95.45
2017-08-24T03:59:41.660Z,95.25
2017-08-24T04:02:09.114Z,94.83
2017-08-24T04:04:36.585Z,93.65
2017-08-24T04:07:04.064Z,93.84
2017-08-24T04:09:31.525Z,95.82
2017-08-24T04:11:59.022Z,96.26
2017-08-24T04:14:26.718Z,95.55
2017-08-24T04:16:54.174Z,94.70
2017-08-24T04:19:21.758Z,93.84
2017-08-24T04:21:49.227Z,94.36
2017-08-24T04:24:16.717Z,94.07
2017-08-24T04:26:44.172Z,94.61
2017-08-24T04:29:11.657Z,94.50
2017-08-24T04:31:39.106Z,93.80
2017-08-24T04:34:06.594Z,92.83
2017-08-24T04:36:34.043Z,92.62
2017-08-24T04:39:01.492Z,92.17
2017-08-24T04:41:28.966Z,93.37
2017-08-24T04:43:56.420Z,93.11
2017-08-24T04:46:23.897Z,93.58
2017-08-24T04:48:51.362Z,93.79
2017-08-24T04:51:18.838Z,93.81
2017-08-24T04:53:46.319Z,92.71
2017-08-24T04:56:13.769Z,93.48
2017-08-24T04:58:41.249Z,92.55
2017-08-24T05:01:08.701Z,91.91
2017-08-24T05:03:36.152Z,92.11
2017-08-24T05:06:03.638Z,89.99
2017-08-24T05:08:31.092Z,91.63
2017-08-24T05:10:58.569Z,94.00
2017-08-24T05:13:26.029Z,90.69
2017-08-24T05:15:53.503Z,88.19
2017-08-24T05:18:20.970Z,87.86
2017-08-24T05:20:48.425Z,87.35
2017-08-24T05:23:15.906Z,87.69
2017-08-24T05:25:43.356Z,86.67
2017-08-24T05:28:10.830Z,87.04
2017-08-24T05:30:38.285Z,86.27
2017-08-24T05:33:05.776Z,86.36
2017-08-24T05:35:33.239Z,86.92
2017-08-24T05:38:00.689Z,86.19
2017-08-24T05:40:28.173Z,86.37
2017-08-24T05:42:55.628Z,84.17
2017-08-24T05:45:23.084Z,84.01
2017-08-24T05:47:50.560Z,84.75
2017-08-24T05:50:18.014Z,85.52
2017-08-24T05:52:45.492Z,88.20
2017-08-24T05:55:12.956Z,86.22
2017-08-24T05:57:40.429Z,84.08
2017-08-24T06:00:07.908Z,85.00
2017-08-24T06:02:35.398Z,86.96
2017-08-24T06:05:02.857Z,83.49
2017-08-24T06:07:30.313Z,83.33
2017-08-24T06:09:57.789Z,83.33
2017-08-24T06:12:25.245Z,83.47
2017-08-24T06:14:52.696Z,81.55
2017-08-24T06:17:20.340Z,81.55
2017-08-24T06:19:47.794Z,82.31
2017-08-24T06:22:15.245Z,80.88
2017-08-24T06:24:42.716Z,80.56
2017-08-24T06:27:10.194Z,81.13
2017-08-24T06:29:37.673Z,79.83
2017-08-24T06:32:05.132Z,78.59
2017-08-24T06:34:32.585Z,80.10
2017-08-24T06:37:00.052Z,77.96
2017-08-24T06:39:27.533Z,77.38
2017-08-24T06:41:54.998Z,77.19
2017-08-24T06:44:22.457Z,76.86
2017-08-24T06:46:49.933Z,79.28
2017-08-24T06:49:17.382Z,80.78
2017-08-24T06:51:44.861Z,76.86
2017-08-24T06:54:12.552Z,74.73
2017-08-24T06:56:40.013Z,76.39
2017-08-24T06:59:07.474Z,75.29
2017-08-24T07:01:34.958Z,75.43
2017-08-24T07:04:02.416Z,75.33
2017-08-24T07:06:29.872Z,73.87
2017-08-24T07:08:57.346Z,74.67
2017-08-24T07:11:24.821Z,74.31
2017-08-24T07:13:52.280Z,74.41
2017-08-24T07:16:19.775Z,73.89
2017-08-24T07:18:47.260Z,71.86
2017-08-24T07:21:14.709Z,72.37
2017-08-24T07:23:42.164Z,71.91
2017-08-24T07:26:09.648Z,71.35
2017-08-24T07:28:37.102Z,72.60
2017-08-24T07:31:04.602Z,73.44
2017-08-24T07:33:32.062Z,71.45
2017-08-24T07:35:59.523Z,71.66
2017-08-24T07:38:26.992Z,71.31
2017-08-24T07:40:54.453Z,71.98
2017-08-24T07:43:21.893Z,71.56
2017-08-24T07:45:49.370Z,71.40
2017-08-24T07:48:16.835Z,68.61
2017-08-24T07:50:44.314Z,69.19
2017-08-24T07:53:11.772Z,67.01
2017-08-24T07:55:39.241Z,69.76
2017-08-24T07:58:06.714Z,69.38
2017-08-24T08:00:34.223Z,67.63
2017-08-24T08:03:01.674Z,67.12
2017-08-24T08:05:29.148Z,66.30
2017-08-24T08:07:56.603Z,63.92
2017-08-24T08:10:24.065Z,64.73
2017-08-24T08:12:51.513Z,64.62
2017-08-24T08:15:19.269Z,65.53
2017-08-24T08:17:46.740Z,63.78
2017-08-24T08:20:14.217Z,62.76
2017-08-24T08:22:41.669Z,63.45
2017-08-24T08:25:09.142Z,64.42
2017-08-24T08:27:36.589Z,62.59
2017-08-24T08:30:04.090Z,62.78
2017-08-24T08:32:31.561Z,63.93
2017-08-24T08:34:59.030Z,61.29
2017-08-24T08:37:26.797Z,61.94
2017-08-24T08:39:54.237Z,61.97
2017-08-24T08:42:21.682Z,62.89
2017-08-24T08:44:49.175Z,62.77
2017-08-24T08:47:16.610Z,60.88
2017-08-24T08:49:44.084Z,60.60
2017-08-24T08:52:11.524Z,60.60
2017-08-24T08:54:39.002Z,60.42
2017-08-24T08:57:06.449Z,60.35
2017-08-24T08:59:33.913Z,58.55
2017-08-24T09:02:01.379Z,56.90
2017-08-24T09:04:29.144Z,57.06
2017-08-24T09:06:56.593Z,55.29
2017-08-24T09:09:24.053Z,54.76
2017-08-24T09:11:51.517Z,54.87
2017-08-24T09:14:18.971Z,55.67
2017-08-24T09:16:46.439Z,55.58
2017-08-24T09:19:13.909Z,56.49
2017-08-24T09:21:41.381Z,55.77
2017-08-24T09:24:08.853Z,53.21
2017-08-24T09:26:36.334Z,54.57
2017-08-24T09:29:03.811Z,54.50
2017-08-24T09:31:31.252Z,54.26
2017-08-24T09:33:58.700Z,54.06
2017-08-24T09:36:26.158Z,55.25
2017-08-24T09:38:53.601Z,52.90
2017-08-24T09:41:21.064Z,51.46
2017-08-24T09:43:48.519Z,50.93
2017-08-24T09:46:15.974Z,53.16
2017-08-24T09:48:43.444Z,52.93
2017-08-24T09:51:10.921Z,48.95
2017-08-24T09:53:38.401Z,49.47
2017-08-24T09:56:05.865Z,50.50
2017-08-24T09:58:33.331Z,50.42
2017-08-24T10:01:00.778Z,51.88
2017-08-24T10:03:28.253Z,52.99
2017-08-24T10:05:55.946Z,49.33
2017-08-24T10:08:23.415Z,49.96
2017-08-24T10:10:50.888Z,49.76
2017-08-24T10:13:18.333Z,50.49
2017-08-24T10:15:45.797Z,51.11
2017-08-24T10:18:13.274Z,50.45
2017-08-24T10:20:40.744Z,47.23
2017-08-24T10:23:08.213Z,47.42
2017-08-24T10:25:35.665Z,47.21
2017-08-24T10:28:03.104Z,48.02
2017-08-24T10:30:30.581Z,47.50
2017-08-24T10:32:58.029Z,47.66
2017-08-24T10:35:25.492Z,47.69
2017-08-24T10:37:52.929Z,48.53
2017-08-24T10:40:20.377Z,46.60
2017-08-24T10:42:47.841Z,47.21
2017-08-24T10:45:15.291Z,47.79
2017-08-24T10:47:42.878Z,49.75
2017-08-24T10:50:10.354Z,48.29
2017-08-24T10:52:37.813Z,49.75
2017-08-24T10:55:05.257Z,45.24
2017-08-24T10:57:32.736Z,45.03
2017-08-24T11:00:00.177Z,45.30
2017-08-24T11:02:27.633Z,47.23
2017-08-24T11:04:55.101Z,44.03
2017-08-24T11:07:22.550Z,43.21
2017-08-24T11:09:50.016Z,42.24
2017-08-24T11:12:17.465Z,42.53
2017-08-24T11:14:44.911Z,41.07
2017-08-24T11:17:12.377Z,41.34
2017-08-24T11:19:39.859Z,45.23
2017-08-24T11:22:07.334Z,42.92
2017-08-24T11:24:34.779Z,43.83
2017-08-24T11:27:02.230Z,42.58
2017-08-24T11:29:30.273Z,42.92
2017-08-24T11:31:57.745Z,41.46
2017-08-24T11:34:25.185Z,40.16
2017-08-24T11:36:52.640Z,37.07
2017-08-24T11:39:20.109Z,36.28
2017-08-24T11:41:47.555Z,38.84
2017-08-24T11:44:15.030Z,40.26
2017-08-24T11:46:42.477Z,42.02
2017-08-24T11:49:09.945Z,37.71
2017-08-24T11:51:37.400Z,38.84
2017-08-24T11:54:05.179Z,38.04
2017-08-24T11:56:32.621Z,36.06
2017-08-24T11:59:00.103Z,34.44
2017-08-24T12:01:27.557Z,41.18
2017-08-24T12:03:55.041Z,44.47
2017-08-24T12:06:22.518Z,39.49
2017-08-24T12:08:49.956Z,42.32
2017-08-24T12:11:17.410Z,37.99
2017-08-24T12:13:44.884Z,39.63
2017-08-24T12:16:12.333Z,39.79
2017-08-24T12:18:39.798Z,41.31
2017-08-24T12:21:07.251Z,39.36
2017-08-24T12:23:34.716Z,33.52
2017-08-24T12:26:02.157Z,37.82
2017-08-24T12:28:29.634Z,36.17
2017-08-24T12:30:57.102Z,33.04
2017-08-24T12:33:24.556Z,39.55
2017-08-24T12:35:52.021Z,33.52
2017-08-24T12:38:19.465Z,31.02
2017-08-24T12:40:46.933Z,32.30
2017-08-24T12:43:14.385Z,35.94
2017-08-24T12:45:41.849Z,34.86
2017-08-24T12:48:09.305Z,39.03
2017-08-24T12:50:36.774Z,39.00
2017-08-24T12:53:04.220Z,35.63
2017-08-24T12:55:31.673Z,35.44
2017-08-24T12:57:59.138Z,40.53
2017-08-24T13:00:26.609Z,37.42
2017-08-24T13:02:54.061Z,39.39
2017-08-24T13:05:21.539Z,38.43
2017-08-24T13:07:49.012Z,38.71
2017-08-24T13:10:16.458Z,36.35
2017-08-24T13:12:43.906Z,36.16
2017-08-24T13:15:11.374Z,35.77
2017-08-24T13:17:38.822Z,35.81
2017-08-24T13:20:06.309Z,38.37
2017-08-24T13:22:33.789Z,32.93
2017-08-24T13:25:01.234Z,36.57
2017-08-24T13:27:28.680Z,34.74
2017-08-24T13:29:56.165Z,36.98
2017-08-24T13:32:23.633Z,39.52
2017-08-24T13:34:51.081Z,39.38
2017-08-24T13:37:18.549Z,38.93
2017-08-24T13:39:45.996Z,38.38
2017-08-24T13:42:13.465Z,39.65
2017-08-24T13:44:40.912Z,42.22
2017-08-24T13:47:08.361Z,41.74
2017-08-24T13:49:35.830Z,36.01
2017-08-24T13:52:03.281Z,37.96
2017-08-24T13:54:30.747Z,35.50
2017-08-24T13:56:58.194Z,36.84
2017-08-24T13:59:25.668Z,41.47
2017-08-24T14:01:53.116Z,35.68
2017-08-24T14:04:20.555Z,35.32
2017-08-24T14:06:48.026Z,36.10
2017-08-24T14:09:15.473Z,36.69
2017-08-24T14:11:42.950Z,35.55
2017-08-24T14:14:10.414Z,39.14
2017-08-24T14:16:37.874Z,39.69
2017-08-24T14:19:05.330Z,38.90
2017-08-24T14:21:32.792Z,38.16
2017-08-24T14:24:00.241Z,38.48
2017-08-24T14:26:27.716Z,40.81
2017-08-24T14:28:55.161Z,39.47
2017-08-24T14:31:22.625Z,38.62
2017-08-24T14:33:50.074Z,37.64
2017-08-24T14:36:17.548Z,38.81
2017-08-24T14:38:44.986Z,41.95
2017-08-24T14:41:12.458Z,40.17
2017-08-24T14:43:39.933Z,39.11
2017-08-24T14:46:07.373Z,35.61
2017-08-24T14:48:34.849Z,36.24
2017-08-24T14:51:02.295Z,37.54
2017-08-24T14:53:29.757Z,35.59
2017-08-24T14:55:57.228Z,35.49
2017-08-24T14:58:24.689Z,37.98
2017-08-24T15:00:52.226Z,40.06
2017-08-24T15:03:19.686Z,37.46
2017-08-24T15:05:47.125Z,37.02
2017-08-24T15:08:14.602Z,36.85
2017-08-24T15:10:42.043Z,35.47
2017-08-24T15:13:09.525Z,39.10
2017-08-24T15:15:36.978Z,37.57
2017-08-24T15:18:04.426Z,36.39
2017-08-24T15:20:31.903Z,37.29
2017-08-24T15:22:59.361Z,35.35
2017-08-24T15:25:26.837Z,35.42
2017-08-24T15:27:54.432Z,33.96
2017-08-24T15:30:21.882Z,34.56
2017-08-24T15:32:49.333Z,35.23
2017-08-24T15:35:16.917Z,35.43
2017-08-24T15:37:44.365Z,35.54
2017-08-24T15:40:11.809Z,37.20
2017-08-24T15:42:39.281Z,35.82
2017-08-24T15:45:06.742Z,38.33
2017-08-24T15:47:34.205Z,35.85
2017-08-24T15:50:01.693Z,35.99
2017-08-24T15:52:29.169Z,36.51
2017-08-24T15:54:56.620Z,41.05
2017-08-24T15:57:25.784Z,36.76
2017-08-24T15:59:53.256Z,39.00
2017-08-24T16:02:20.705Z,39.04
2017-08-24T16:04:48.170Z,38.91
2017-08-24T16:07:15.616Z,36.81
2017-08-24T16:09:43.401Z,35.95
2017-08-24T16:12:10.850Z,36.23
2017-08-24T16:14:38.297Z,36.80
2017-08-24T16:17:05.765Z,36.88
2017-08-24T16:19:33.227Z,36.55
2017-08-24T16:22:00.685Z,35.85
2017-08-24T16:24:28.128Z,38.17
2017-08-24T16:26:55.578Z,39.66
2017-08-24T16:29:23.057Z,36.74
2017-08-24T16:31:50.841Z,35.58
2017-08-24T16:34:18.281Z,36.23
2017-08-24T16:36:45.740Z,36.17
2017-08-24T16:39:13.207Z,36.01
2017-08-24T16:41:40.673Z,36.65
2017-08-24T16:44:08.112Z,37.62
2017-08-24T16:46:35.581Z,38.06
2017-08-24T16:49:03.042Z,38.52
2017-08-24T16:51:30.508Z,38.98
2017-08-24T16:53:57.949Z,40.39
2017-08-24T16:56:25.396Z,39.33
2017-08-24T16:58:52.878Z,40.29
2017-08-24T17:01:20.319Z,40.43
2017-08-24T17:03:47.789Z,39.90
2017-08-24T17:06:15.240Z,39.87
2017-08-24T17:08:42.686Z,40.24
2017-08-24T17:11:10.154Z,40.54
2017-08-24T17:13:37.608Z,41.27
2017-08-24T17:16:05.078Z,43.59
2017-08-24T17:18:32.644Z,44.89
2017-08-24T17:21:00.102Z,46.55
2017-08-24T17:23:27.549Z,47.56
2017-08-24T17:25:55.021Z,50.43
2017-08-24T17:28:22.480Z,49.58
2017-08-24T17:30:50.562Z,50.22
2017-08-24T17:33:18.898Z,52.59
2017-08-24T17:35:46.349Z,53.61
2017-08-24T17:38:13.812Z,56.00
2017-08-24T17:40:41.261Z,55.88
2017-08-24T17:43:08.711Z,55.63
2017-08-24T17:45:36.188Z,58.86
2017-08-24T17:48:03.642Z,60.86
2017-08-24T17:50:31.113Z,62.28
2017-08-24T17:52:58.586Z,62.37
2017-08-24T17:55:26.033Z,61.71
2017-08-24T17:57:53.501Z,62.11
2017-08-24T18:00:20.946Z,62.60
2017-08-24T18:02:48.403Z,63.67
2017-08-24T18:05:15.881Z,63.01
2017-08-24T18:07:43.357Z,65.11
2017-08-24T18:10:10.805Z,65.88
2017-08-24T18:12:38.266Z,64.77
2017-08-24T18:15:05.737Z,66.92
2017-08-24T18:17:33.216Z,68.40
2017-08-24T18:20:00.676Z,69.55
2017-08-24T18:22:28.139Z,70.52
2017-08-24T18:24:55.608Z,71.35
2017-08-24T18:27:23.065Z,70.57
2017-08-24T18:29:50.541Z,70.67
2017-08-24T18:32:18.004Z,71.24
2017-08-24T18:34:45.461Z,72.63
2017-08-24T18:37:12.954Z,73.54
2017-08-24T18:39:40.401Z,75.72
2017-08-24T18:42:07.854Z,75.45
2017-08-24T18:44:35.328Z,75.99
2017-08-24T18:47:02.805Z,76.70
2017-08-24T18:49:30.257Z,77.74
2017-08-24T18:51:57.926Z,77.30
2017-08-24T18:54:25.435Z,77.38
2017-08-24T18:56:52.919Z,77.05
2017-08-24T18:59:20.384Z,76.44
2017-08-24T19:01:47.866Z,77.20
2017-08-24T19:04:15.349Z,78.51
2017-08-24T19:06:42.811Z,78.93
2017-08-24T19:09:11.726Z,79.10
2017-08-24T19:11:40.250Z,79.17
2017-08-24T19:14:08.949Z,80.45
2017-08-24T19:16:36.863Z,80.27
2017-08-24T19:19:04.630Z,81.11
2017-08-24T19:21:32.381Z,82.14
2017-08-24T19:24:00.364Z,82.22
2017-08-24T19:26:29.076Z,83.10
2017-08-24T19:28:56.535Z,82.37
2017-08-24T19:31:23.991Z,82.85
2017-08-24T19:33:51.986Z,82.75
2017-08-24T19:36:20.492Z,83.21
2017-08-24T19:38:48.927Z,83.83
2017-08-24T19:41:16.478Z,83.11
2017-08-24T19:43:43.935Z,83.69
2017-08-24T19:46:11.394Z,83.86
2017-08-24T19:48:40.325Z,82.50
2017-08-24T19:51:07.926Z,82.21
2017-08-24T19:53:35.393Z,82.88
2017-08-24T19:56:02.844Z,83.05
2017-08-24T19:58:31.531Z,83.92
2017-08-24T20:00:59.132Z,83.84
2017-08-24T20:03:26.884Z,83.66
2017-08-24T20:05:54.337Z,83.65
2017-08-24T20:08:22.593Z,84.25
2017-08-24T20:10:51.122Z,83.16
2017-08-24T20:13:18.710Z,82.99
2017-08-24T20:15:46.173Z,83.44
2017-08-24T20:18:13.621Z,83.80
2017-08-24T20:20:42.752Z,83.80
2017-08-24T20:23:10.437Z,84.08
2017-08-24T20:25:38.299Z,84.84
2017-08-24T20:28:05.780Z,85.44
2017-08-24T20:30:33.233Z,84.76
2017-08-24T20:33:00.719Z,84.29
2017-08-24T20:35:29.036Z,83.53
2017-08-24T20:37:56.585Z,83.41
2017-08-24T20:40:24.053Z,83.92
2017-08-24T20:42:52.061Z,84.68
2017-08-24T20:45:19.541Z,85.02
2017-08-24T20:47:47.002Z,84.83
2017-08-24T20:50:14.484Z,85.38
2017-08-24T20:52:41.942Z,85.73
2017-08-24T20:55:09.432Z,84.86
2017-08-24T20:57:36.892Z,85.24
2017-08-24T21:00:04.565Z,85.96
2017-08-24T21:02:32.020Z,87.01
2017-08-24T21:04:59.478Z,85.81
2017-08-24T21:07:26.948Z,85.38
2017-08-24T21:09:54.401Z,85.53
2017-08-24T21:12:21.867Z,85.31
2017-08-24T21:14:49.338Z,85.57
2017-08-24T21:17:16.812Z,85.23
2017-08-24T21:19:44.294Z,85.35
2017-08-24T21:22:11.746Z,85.72
2017-08-24T21:24:39.229Z,85.78
2017-08-24T21:27:06.677Z,85.69
2017-08-24T21:29:34.150Z,86.01
2017-08-24T21:32:01.627Z,85.72
2017-08-24T21:34:29.073Z,86.35
2017-08-24T21:36:56.773Z,87.11
2017-08-24T21:39:24.226Z,86.29
2017-08-24T21:41:51.673Z,85.71
2017-08-24T21:44:19.161Z,85.36
2017-08-24T21:46:46.617Z,85.10
2017-08-24T21:49:14.127Z,82.63
2017-08-24T21:51:41.581Z,80.07
2017-08-24T21:54:09.044Z,77.12
2017-08-24T21:56:36.515Z,69.33
2017-08-24T21:59:03.968Z,66.54
2017-08-24T22:01:31.413Z,66.57
2017-08-24T22:03:58.889Z,65.09
2017-08-24T22:06:26.339Z,62.35
2017-08-24T22:08:53.785Z,61.25
2017-08-24T22:11:21.264Z,61.16
2017-08-24T22:13:48.711Z,60.25
2017-08-24T22:16:16.166Z,59.85
2017-08-24T22:18:43.632Z,60.31
2017-08-24T22:21:11.093Z,58.55
2017-08-24T22:23:38.564Z,58.80
2017-08-24T22:26:06.010Z,59.61
2017-08-24T22:28:33.488Z,57.03
2017-08-24T22:31:00.958Z,57.07
2017-08-24T22:33:28.661Z,56.55
2017-08-24T22:35:56.109Z,56.39
2017-08-24T22:38:23.559Z,56.01
2017-08-24T22:40:51.049Z,56.17
2017-08-24T22:43:18.509Z,57.43
2017-08-24T22:45:45.966Z,57.60
2017-08-24T22:48:13.433Z,57.56
2017-08-24T22:50:40.872Z,58.57
2017-08-24T22:56:14.763Z,59.30
2017-08-24T22:58:47.765Z,59.74
2017-08-24T23:04:18.045Z,60.62
2017-08-24T23:06:45.490Z,61.41
2017-08-24T23:09:12.956Z,61.84
2017-08-24T23:11:40.400Z,62.08
2017-08-24T23:14:07.874Z,62.55
2017-08-24T23:16:35.325Z,63.18
2017-08-24T23:19:02.825Z,63.63
2017-08-24T23:21:30.285Z,63.82
2017-08-24T23:23:57.730Z,65.63
2017-08-24T23:26:25.209Z,65.03
2017-08-24T23:28:52.657Z,65.41
2017-08-24T23:31:20.101Z,66.67
2017-08-24T23:33:47.583Z,66.76
2017-08-24T23:36:15.045Z,66.69
2017-08-24T23:38:42.525Z,67.48
2017-08-24T23:41:09.972Z,68.00
2017-08-24T23:43:37.714Z,68.30
2017-08-24T23:46:05.164Z,69.08
2017-08-24T23:48:32.623Z,68.82
2017-08-24T23:51:00.102Z,69.47
2017-08-24T23:53:27.544Z,69.46
2017-08-24T23:55:55.007Z,70.08
2017-08-24T23:58:22.465Z,69.57
